nws-alerts: Checking more than four warning/county codes can delay the loading of your pages. You should use a cron job to get the data.
EllijayWeather Station Historical Data
Daily Summary for August 22, 2018 Units:  English    Metric   Both
Daily Weekly Monthly Yearly Custom
  High: Low: Average:
Temperature: 79 °F 65.1 °F 71 °F
Dew Point: 71.2 °F 63.7 °F 66.9 °F
Humidity: 96% 67% 88%
Wind Speed: 4.9mph 0mph 0.2mph
Wind Gust: 8mph - -
Wind- - SSW
Pressure: 30.08 in 29.99 in -
Precipitation: 0 in    
Historical Graphs
 
 
Tabular Data for August 22, 2018
Time Temperature Dew Point Pressure Wind Wind Speed Wind Gust Humidity Rainfall Rate (Hourly) solar
00:04 69.4 °F 68 °F 30.02 in Calm     95% 0 in meteobridge W/m2
00:09 69.3 °F 67.5 °F 30.02 in Calm     94% 0 in meteobridge W/m2
00:14 69.3 °F 67.5 °F 30.01 in Calm     94% 0 in meteobridge W/m2
00:19 69.3 °F 67.8 °F 30.01 in Calm     95% 0 in meteobridge W/m2
00:24 69.1 °F 67.6 °F 30.01 in Calm     95% 0 in meteobridge W/m2
00:29 69.1 °F 67.6 °F 30.01 in Calm     95% 0 in meteobridge W/m2
00:34 68.9 °F 67.5 °F 30.01 in Calm     95% 0 in meteobridge W/m2
00:39 68.7 °F 67.3 °F 30.01 in Calm     95% 0 in meteobridge W/m2
00:44 68.7 °F 67.3 °F 30.01 in Calm     95% 0 in meteobridge W/m2
00:49 68.7 °F 67.3 °F 30.01 in Calm     95% 0 in meteobridge W/m2
00:54 68.5 °F 67.1 °F 30.01 in Calm     95% 0 in meteobridge W/m2
00:59 68.5 °F 67.1 °F 30.01 in Calm     95% 0 in meteobridge W/m2
01:04 68.4 °F 66.9 °F 30.01 in Calm     95% 0 in meteobridge W/m2
01:09 68.4 °F 66.9 °F 30.01 in Calm     95% 0 in meteobridge W/m2
01:14 68.2 °F 66.7 °F 30.01 in Calm     95% 0 in meteobridge W/m2
01:19 68.2 °F 66.7 °F 30.01 in Calm     95% 0 in meteobridge W/m2
01:24 68.2 °F 66.7 °F 30.01 in Calm     95% 0 in meteobridge W/m2
01:29 68.2 °F 66.7 °F 30.01 in Calm     95% 0 in meteobridge W/m2
01:34 68.2 °F 66.7 °F 30.01 in Calm     95% 0 in meteobridge W/m2
01:39 68 °F 66.6 °F 30.01 in Calm     95% 0 in meteobridge W/m2
01:44 67.8 °F 66.4 °F 30.01 in Calm     95% 0 in meteobridge W/m2
01:49 67.8 °F 66.4 °F 30.01 in Calm     95% 0 in meteobridge W/m2
01:54 67.8 °F 66.4 °F 30.01 in Calm     95% 0 in meteobridge W/m2
01:59 67.6 °F 66.2 °F 30.01 in Calm     95% 0 in meteobridge W/m2
02:04 67.6 °F 66.2 °F 30.01 in Calm     95% 0 in meteobridge W/m2
02:09 67.5 °F 66 °F 30.01 in Calm     95% 0 in meteobridge W/m2
02:14 67.5 °F 66 °F 30.01 in Calm     95% 0 in meteobridge W/m2
02:19 67.5 °F 66 °F 30.01 in Calm     95% 0 in meteobridge W/m2
02:24 67.3 °F 65.8 °F 30.01 in Calm     95% 0 in meteobridge W/m2
02:29 67.3 °F 65.8 °F 30.01 in Calm     95% 0 in meteobridge W/m2
02:34 67.1 °F 65.7 °F 30.01 in Calm     95% 0 in meteobridge W/m2
02:39 67.1 °F 65.7 °F 30.01 in Calm     95% 0 in meteobridge W/m2
02:44 66.9 °F 65.5 °F 30.01 in Calm     95% 0 in meteobridge W/m2
02:49 66.7 °F 65.3 °F 30.01 in Calm     95% 0 in meteobridge W/m2
02:54 66.7 °F 65.3 °F 30.00 in Calm     95% 0 in meteobridge W/m2
02:59 66.6 °F 65.1 °F 30.01 in Calm     95% 0 in meteobridge W/m2
03:04 66.4 °F 64.9 °F 30.00 in Calm     95% 0 in meteobridge W/m2
03:09 66.4 °F 64.9 °F 30.01 in Calm     95% 0 in meteobridge W/m2
03:14 66.4 °F 64.9 °F 30.01 in Calm     95% 0 in meteobridge W/m2
03:19 66.2 °F 64.8 °F 30.00 in Calm     95% 0 in meteobridge W/m2
03:24 66 °F 64.6 °F 30.00 in Calm     95% 0 in meteobridge W/m2
03:29 66 °F 64.6 °F 30.01 in Calm     95% 0 in meteobridge W/m2
03:34 66 °F 64.6 °F 30.01 in Calm     95% 0 in meteobridge W/m2
03:39 65.8 °F 64.4 °F 30.00 in Calm     95% 0 in meteobridge W/m2
03:44 65.8 °F 64.4 °F 30.00 in Calm     95% 0 in meteobridge W/m2
03:49 65.8 °F 64.4 °F 30.00 in Calm     95% 0 in meteobridge W/m2
03:54 65.7 °F 64.2 °F 30.00 in Calm     95% 0 in meteobridge W/m2
03:59 65.7 °F 64.2 °F 30.00 in Calm     95% 0 in meteobridge W/m2
04:04 65.7 °F 64.2 °F 30.00 in Calm     95% 0 in meteobridge W/m2
04:09 65.5 °F 64 °F 29.99 in Calm     95% 0 in meteobridge W/m2
04:14 65.5 °F 64 °F 30.00 in Calm     95% 0 in meteobridge W/m2
04:19 65.5 °F 64 °F 30.00 in Calm     95% 0 in meteobridge W/m2
04:24 65.3 °F 63.9 °F 30.00 in Calm     95% 0 in meteobridge W/m2
04:29 65.1 °F 63.7 °F 30.00 in Calm     95% 0 in meteobridge W/m2
04:34 65.1 °F 63.7 °F 30.00 in Calm     95% 0 in meteobridge W/m2
04:39 65.1 °F 63.7 °F 30.00 in Calm     95% 0 in meteobridge W/m2
04:44 65.1 °F 63.7 °F 30.00 in Calm     95% 0 in meteobridge W/m2
04:49 65.1 °F 63.7 °F 30.00 in Calm     95% 0 in meteobridge W/m2
04:54 65.1 °F 63.7 °F 29.99 in Calm     95% 0 in meteobridge W/m2
04:59 65.1 °F 63.7 °F 30.00 in Calm     95% 0 in meteobridge W/m2
05:04 65.1 °F 63.7 °F 29.99 in Calm     95% 0 in meteobridge W/m2
05:09 65.3 °F 63.9 °F 30.00 in Calm     95% 0 in meteobridge W/m2
05:14 65.3 °F 63.9 °F 30.00 in Calm     95% 0 in meteobridge W/m2
05:19 65.5 °F 64 °F 30.00 in Calm     95% 0 in meteobridge W/m2
05:24 65.5 °F 64 °F 30.01 in Calm     95% 0 in meteobridge W/m2
05:29 65.5 °F 64 °F 30.01 in Calm     95% 0 in meteobridge W/m2
05:34 65.7 °F 64.2 °F 30.01 in Calm     95% 0 in meteobridge W/m2
05:39 65.7 °F 64.4 °F 30.01 in Calm     96% 0 in meteobridge W/m2
05:44 65.7 °F 64.4 °F 30.01 in Calm     96% 0 in meteobridge W/m2
05:49 65.7 °F 64.4 °F 30.02 in Calm     96% 0 in meteobridge W/m2
05:54 65.7 °F 64.4 °F 30.02 in Calm     96% 0 in meteobridge W/m2
05:59 65.7 °F 64.4 °F 30.02 in Calm     96% 0 in meteobridge W/m2
06:04 65.7 °F 64.4 °F 30.02 in Calm     96% 0 in meteobridge W/m2
06:09 65.7 °F 64.4 °F 30.02 in Calm     96% 0 in meteobridge W/m2
06:14 65.7 °F 64.4 °F 30.02 in Calm     96% 0 in meteobridge W/m2
06:19 65.7 °F 64.4 °F 30.02 in Calm     96% 0 in meteobridge W/m2
06:24 65.7 °F 64.4 °F 30.02 in Calm     96% 0 in meteobridge W/m2
06:29 65.7 °F 64.4 °F 30.03 in Calm     96% 0 in meteobridge W/m2
06:34 65.7 °F 64.4 °F 30.03 in Calm     96% 0 in meteobridge W/m2
06:39 65.7 °F 64.4 °F 30.03 in Calm     96% 0 in meteobridge W/m2
06:44 65.7 °F 64.4 °F 30.03 in Calm     96% 0 in meteobridge W/m2
06:49 65.7 °F 64.4 °F 30.03 in Calm     96% 0 in meteobridge W/m2
06:54 65.7 °F 64.4 °F 30.03 in Calm     96% 0 in meteobridge W/m2
06:59 65.7 °F 64.4 °F 30.03 in Calm     96% 0 in meteobridge W/m2
07:04 65.7 °F 64.4 °F 30.03 in Calm     96% 0 in meteobridge W/m2
07:09 65.7 °F 64.4 °F 30.03 in Calm     96% 0 in meteobridge W/m2
07:14 65.7 °F 64.4 °F 30.03 in Calm     96% 0 in meteobridge W/m2
07:19 65.7 °F 64.4 °F 30.03 in Calm     96% 0 in meteobridge W/m2
07:24 65.8 °F 64.6 °F 30.04 in Calm     96% 0 in meteobridge W/m2
07:29 65.8 °F 64.6 °F 30.04 in Calm     96% 0 in meteobridge W/m2
07:34 65.8 °F 64.6 °F 30.04 in Calm     96% 0 in meteobridge W/m2
07:39 65.8 °F 64.6 °F 30.04 in Calm     96% 0 in meteobridge W/m2
07:44 65.8 °F 64.6 °F 30.04 in Calm     96% 0 in meteobridge W/m2
07:49 66 °F 64.8 °F 30.04 in Calm     96% 0 in meteobridge W/m2
07:54 66 °F 64.8 °F 30.03 in Calm     96% 0 in meteobridge W/m2
07:59 66 °F 64.8 °F 30.04 in Calm     96% 0 in meteobridge W/m2
08:04 66.2 °F 64.9 °F 30.04 in Calm     96% 0 in meteobridge W/m2
08:09 66.4 °F 65.1 °F 30.04 in Calm     96% 0 in meteobridge W/m2
08:14 66.4 °F 65.1 °F 30.03 in Calm     96% 0 in meteobridge W/m2
08:19 66.6 °F 65.3 °F 30.03 in Calm     96% 0 in meteobridge W/m2
08:24 66.6 °F 65.3 °F 30.04 in Calm     96% 0 in meteobridge W/m2
08:29 66.7 °F 65.5 °F 30.04 in Calm     96% 0 in meteobridge W/m2
08:34 66.9 °F 65.7 °F 30.04 in Calm     96% 0 in meteobridge W/m2
08:39 67.3 °F 66 °F 30.05 in Calm     96% 0 in meteobridge W/m2
08:44 67.5 °F 66.2 °F 30.05 in Calm     96% 0 in meteobridge W/m2
08:49 67.6 °F 66.4 °F 30.05 in Calm     96% 0 in meteobridge W/m2
08:54 67.8 °F 66.6 °F 30.05 in Calm     96% 0 in meteobridge W/m2
08:59 68.2 °F 66.9 °F 30.05 in Calm     96% 0 in meteobridge W/m2
09:04 68.4 °F 67.1 °F 30.05 in Calm     96% 0 in meteobridge W/m2
09:09 68.5 °F 67.3 °F 30.05 in Calm     96% 0 in meteobridge W/m2
09:14 68.7 °F 67.5 °F 30.05 in Calm     96% 0 in meteobridge W/m2
09:19 69.1 °F 67.8 °F 30.05 in Calm   1 mph 96% 0 in meteobridge W/m2
09:24 69.3 °F 68 °F 30.04 in Calm     96% 0 in meteobridge W/m2
09:29 69.4 °F 68.2 °F 30.04 in Calm   3 mph 96% 0 in meteobridge W/m2
09:34 69.6 °F 68.4 °F 30.05 in Calm     96% 0 in meteobridge W/m2
09:39 70 °F 68.7 °F 30.05 in Calm     96% 0 in meteobridge W/m2
09:44 70 °F 68.5 °F 30.05 in Calm     95% 0 in meteobridge W/m2
09:49 70 °F 68.5 °F 30.05 in Calm   3 mph 95% 0 in meteobridge W/m2
09:54 70.2 °F 68.7 °F 30.05 in Calm     95% 0 in meteobridge W/m2
09:59 70.3 °F 68.9 °F 30.04 in NNW 0.9 mph 1 mph 95% 0 in meteobridge W/m2
10:04 70.3 °F 68.9 °F 30.04 in Calm     95% 0 in meteobridge W/m2
10:09 70.3 °F 68.5 °F 30.04 in Calm   3 mph 94% 0 in meteobridge W/m2
10:14 70.5 °F 68.7 °F 30.04 in Calm     94% 0 in meteobridge W/m2
10:19 70.9 °F 69.1 °F 30.04 in Calm   2 mph 94% 0 in meteobridge W/m2
10:24 71.1 °F 68.9 °F 30.04 in Calm   3 mph 93% 0 in meteobridge W/m2
10:29 71.4 °F 69.3 °F 30.04 in Calm   2 mph 93% 0 in meteobridge W/m2
10:34 71.8 °F 69.3 °F 30.04 in Calm   2 mph 92% 0 in meteobridge W/m2
10:39 72.3 °F 69.8 °F 30.04 in West 2 mph 4 mph 92% 0 in meteobridge W/m2
10:44 72.9 °F 69.8 °F 30.05 in WNW 0.9 mph 2 mph 90% 0 in meteobridge W/m2
10:49 73 °F 69.6 °F 30.05 in Calm   1 mph 89% 0 in meteobridge W/m2
10:54 73.2 °F 69.1 °F 30.05 in NNE 0.9 mph 3 mph 87% 0 in meteobridge W/m2
10:59 73.6 °F 69.4 °F 30.05 in Calm   1 mph 87% 0 in meteobridge W/m2
11:04 73.9 °F 69.4 °F 30.05 in NNW 2 mph 3 mph 86% 0 in meteobridge W/m2
11:09 74.1 °F 69.3 °F 30.05 in NNE 4.9 mph 5 mph 85% 0 in meteobridge W/m2
11:14 74.5 °F 69.6 °F 30.05 in Calm   7 mph 85% 0 in meteobridge W/m2
11:19 74.7 °F 69.1 °F 30.05 in Calm   3 mph 83% 0 in meteobridge W/m2
11:23 74.8 °F 69.3 °F 30.05 in Calm     83% 0 in meteobridge W/m2
11:29 75 °F 69.1 °F 30.05 in Calm   3 mph 82% 0 in meteobridge W/m2
11:34 74.8 °F 68.5 °F 30.05 in NNW 2 mph 4 mph 81% 0 in meteobridge W/m2
11:39 75 °F 68.7 °F 30.05 in North 2.9 mph 3 mph 81% 0 in meteobridge W/m2
11:44 75 °F 69.1 °F 30.05 in Calm   2 mph 82% 0 in meteobridge W/m2
11:49 75.2 °F 69.3 °F 30.05 in Calm   3 mph 82% 0 in meteobridge W/m2
11:54 75.4 °F 69.1 °F 30.05 in NW 0.9 mph 4 mph 81% 0 in meteobridge W/m2
11:59 75.4 °F 68.7 °F 30.05 in Calm   3 mph 80% 0 in meteobridge W/m2
12:04 75.6 °F 68.2 °F 30.05 in WNW 0.9 mph 6 mph 78% 0 in meteobridge W/m2
12:09 75.4 °F 68 °F 30.05 in North 0.9 mph 6 mph 78% 0 in meteobridge W/m2
12:14 75.2 °F 67.8 °F 30.05 in Calm   1 mph 78% 0 in meteobridge W/m2
12:19 75 °F 66.9 °F 30.05 in Calm   4 mph 76% 0 in meteobridge W/m2
12:24 75.6 °F 67.5 °F 30.05 in ENE 0.9 mph 3 mph 76% 0 in meteobridge W/m2
12:29 76.1 °F 66.7 °F 30.05 in Calm   7 mph 73% 0 in meteobridge W/m2
12:34 76.5 °F 67.6 °F 30.05 in Calm   4 mph 74% 0 in meteobridge W/m2
12:39 77 °F 66.9 °F 30.05 in Calm   5 mph 71% 0 in meteobridge W/m2
12:44 77.2 °F 67.1 °F 30.05 in Calm   2 mph 71% 0 in meteobridge W/m2
12:49 77.2 °F 67.8 °F 30.05 in Calm   3 mph 73% 0 in meteobridge W/m2
12:54 77.4 °F 67.3 °F 30.04 in Calm   3 mph 71% 0 in meteobridge W/m2
12:59 77.7 °F 67.1 °F 30.04 in Calm   6 mph 70% 0 in meteobridge W/m2
13:04 78.3 °F 67.6 °F 30.04 in Calm   1 mph 70% 0 in meteobridge W/m2
13:09 78.3 °F 68 °F 30.04 in Calm     71% 0 in meteobridge W/m2
13:14 78.3 °F 68 °F 30.05 in Calm     71% 0 in meteobridge W/m2
13:19 78.1 °F 66.2 °F 30.04 in NE 2 mph 3 mph 67% 0 in meteobridge W/m2
13:24 78.1 °F 67.5 °F 30.04 in NNE 0.9 mph 3 mph 70% 0 in meteobridge W/m2
13:29 78.3 °F 66.7 °F 30.04 in Calm   3 mph 68% 0 in meteobridge W/m2
13:34 78.4 °F 67.5 °F 30.04 in North 4.9 mph 5 mph 69% 0 in meteobridge W/m2
13:39 78.8 °F 66.9 °F 30.04 in Calm   4 mph 67% 0 in meteobridge W/m2
13:44 78.4 °F 67.8 °F 30.04 in NNW 4 mph 5 mph 70% 0 in meteobridge W/m2
13:49 78.4 °F 68.2 °F 30.04 in WNW 2.9 mph 3 mph 71% 0 in meteobridge W/m2
13:54 78.3 °F 67.6 °F 30.04 in Calm   4 mph 70% 0 in meteobridge W/m2
13:59 78.3 °F 67.6 °F 30.04 in Calm   4 mph 70% 0 in meteobridge W/m2
14:04 78.1 °F 67.5 °F 30.04 in Calm   2 mph 70% 0 in meteobridge W/m2
14:09 77.9 °F 67.8 °F 30.04 in Calm   3 mph 71% 0 in meteobridge W/m2
14:14 77.5 °F 67.5 °F 30.04 in Calm     71% 0 in meteobridge W/m2
14:19 77.4 °F 68 °F 30.04 in Calm   1 mph 73% 0 in meteobridge W/m2
14:24 77.5 °F 68.2 °F 30.04 in Calm     73% 0 in meteobridge W/m2
14:29 78.1 °F 67.5 °F 30.04 in East 0.9 mph 8 mph 70% 0 in meteobridge W/m2
14:34 78.4 °F 68.7 °F 30.04 in Calm   1 mph 72% 0 in meteobridge W/m2
14:39 78.3 °F 68 °F 30.04 in North 0.9 mph 6 mph 71% 0 in meteobridge W/m2
14:44 78.1 °F 68.4 °F 30.04 in Calm   2 mph 72% 0 in meteobridge W/m2
14:49 77.7 °F 68 °F 30.04 in Calm   4 mph 72% 0 in meteobridge W/m2
14:54 77.5 °F 68.5 °F 30.04 in Calm   1 mph 74% 0 in meteobridge W/m2
14:59 77.7 °F 68.4 °F 30.03 in West 2.9 mph 4 mph 73% 0 in meteobridge W/m2
15:04 78.1 °F 68.4 °F 30.03 in Calm   2 mph 72% 0 in meteobridge W/m2
15:09 78.1 °F 67.5 °F 30.03 in NNE 2.9 mph 8 mph 70% 0 in meteobridge W/m2
15:14 78.4 °F 67.8 °F 30.03 in Calm   1 mph 70% 0 in meteobridge W/m2
15:19 78.6 °F 68.4 °F 30.03 in Calm   3 mph 71% 0 in meteobridge W/m2
15:24 78.6 °F 68.4 °F 30.03 in Calm   5 mph 71% 0 in meteobridge W/m2
15:29 78.8 °F 68.5 °F 30.02 in Calm   3 mph 71% 0 in meteobridge W/m2
15:34 79 °F 68.4 °F 30.03 in WNW 2.9 mph 6 mph 70% 0 in meteobridge W/m2
15:39 78.8 °F 68.2 °F 30.03 in Calm   3 mph 70% 0 in meteobridge W/m2
15:44 78.4 °F 68.2 °F 30.03 in Calm     71% 0 in meteobridge W/m2
15:49 78.1 °F 68.4 °F 30.03 in Calm   4 mph 72% 0 in meteobridge W/m2
15:54 77.7 °F 69.1 °F 30.03 in Calm     75% 0 in meteobridge W/m2
15:59 77.5 °F 68.5 °F 30.02 in West 0.9 mph 1 mph 74% 0 in meteobridge W/m2
16:04 77.7 °F 68.7 °F 30.03 in Calm   1 mph 74% 0 in meteobridge W/m2
16:09 77.5 °F 68.5 °F 30.03 in Calm     74% 0 in meteobridge W/m2
16:14 77.5 °F 69.8 °F 30.02 in Calm     77% 0 in meteobridge W/m2
16:19 77.4 °F 70 °F 30.02 in Calm     78% 0 in meteobridge W/m2
16:24 77 °F 69.3 °F 30.02 in Calm     77% 0 in meteobridge W/m2
16:29 77 °F 69.3 °F 30.02 in Calm     77% 0 in meteobridge W/m2
16:34 77 °F 70.3 °F 30.02 in Calm     80% 0 in meteobridge W/m2
16:39 76.8 °F 70.5 °F 30.02 in Calm     81% 0 in meteobridge W/m2
16:44 76.8 °F 70.5 °F 30.02 in Calm     81% 0 in meteobridge W/m2
16:49 76.8 °F 70.9 °F 30.02 in Calm     82% 0 in meteobridge W/m2
16:54 76.6 °F 70.7 °F 30.02 in Calm   1 mph 82% 0 in meteobridge W/m2
16:59 76.5 °F 70.2 °F 30.02 in Calm     81% 0 in meteobridge W/m2
17:04 76.5 °F 71.2 °F 30.02 in Calm     84% 0 in meteobridge W/m2
17:09 76.3 °F 70.7 °F 30.02 in Calm     83% 0 in meteobridge W/m2
17:14 75.9 °F 69.3 °F 30.02 in Calm     80% 0 in meteobridge W/m2
17:19 75.9 °F 70 °F 30.02 in Calm     82% 0 in meteobridge W/m2
17:24 75.6 °F 68.9 °F 30.02 in Calm     80% 0 in meteobridge W/m2
17:29 75.6 °F 68.5 °F 30.02 in Calm     79% 0 in meteobridge W/m2
17:34 75.7 °F 69.1 °F 30.01 in NNW 0.9 mph 1 mph 80% 0 in meteobridge W/m2
17:39 76.5 °F 69.4 °F 30.01 in Calm     79% 0 in meteobridge W/m2
17:44 76.8 °F 69.1 °F 30.01 in Calm   4 mph 77% 0 in meteobridge W/m2
17:49 77.4 °F 70.7 °F 30.01 in NNW 0.9 mph 2 mph 80% 0 in meteobridge W/m2
17:54 77.5 °F 69.4 °F 30.02 in Calm   3 mph 76% 0 in meteobridge W/m2
17:59 77.5 °F 68.9 °F 30.02 in Calm   1 mph 75% 0 in meteobridge W/m2
18:04 77.5 °F 68.9 °F 30.02 in WNW 0.9 mph 1 mph 75% 0 in meteobridge W/m2
18:09 77.4 °F 69.3 °F 30.02 in Calm   3 mph 76% 0 in meteobridge W/m2
18:14 77.2 °F 69.1 °F 30.02 in Calm   2 mph 76% 0 in meteobridge W/m2
18:19 77.2 °F 69.1 °F 30.02 in Calm   4 mph 76% 0 in meteobridge W/m2
18:24 76.8 °F 67.8 °F 30.02 in Calm   2 mph 74% 0 in meteobridge W/m2
18:29 76.8 °F 68.4 °F 30.02 in North 0.9 mph 4 mph 75% 0 in meteobridge W/m2
18:34 76.6 °F 68.5 °F 30.02 in Calm     76% 0 in meteobridge W/m2
18:39 76.5 °F 68.7 °F 30.03 in Calm     77% 0 in meteobridge W/m2
18:44 76.3 °F 68.5 °F 30.02 in Calm   1 mph 77% 0 in meteobridge W/m2
18:49 76.1 °F 69.1 °F 30.02 in Calm     79% 0 in meteobridge W/m2
18:54 75.7 °F 68.4 °F 30.02 in Calm   1 mph 78% 0 in meteobridge W/m2
18:59 75.7 °F 68 °F 30.02 in Calm   3 mph 77% 0 in meteobridge W/m2
19:04 75.6 °F 67.8 °F 30.02 in Calm   2 mph 77% 0 in meteobridge W/m2
19:09 75.7 °F 69.1 °F 30.02 in Calm     80% 0 in meteobridge W/m2
19:14 75.4 °F 68 °F 30.02 in Calm     78% 0 in meteobridge W/m2
19:19 75.4 °F 68.7 °F 30.02 in Calm     80% 0 in meteobridge W/m2
19:24 75.2 °F 69.3 °F 30.02 in Calm     82% 0 in meteobridge W/m2
19:29 75 °F 69.1 °F 30.02 in Calm     82% 0 in meteobridge W/m2
19:34 74.8 °F 69.3 °F 30.02 in Calm     83% 0 in meteobridge W/m2
19:39 74.5 °F 68.9 °F 30.02 in Calm     83% 0 in meteobridge W/m2
19:44 73.9 °F 68.7 °F 30.02 in Calm     84% 0 in meteobridge W/m2
19:49 73.6 °F 68.7 °F 30.02 in Calm     85% 0 in meteobridge W/m2
19:54 73.2 °F 68.7 °F 30.03 in Calm     86% 0 in meteobridge W/m2
19:59 72.9 °F 68.7 °F 30.03 in Calm     87% 0 in meteobridge W/m2
20:04 72.3 °F 68.5 °F 30.03 in Calm     88% 0 in meteobridge W/m2
20:09 72.1 °F 68.4 °F 30.03 in Calm     88% 0 in meteobridge W/m2
20:14 71.8 °F 68.4 °F 30.03 in Calm     89% 0 in meteobridge W/m2
20:19 71.4 °F 68 °F 30.03 in Calm     89% 0 in meteobridge W/m2
20:24 71.2 °F 67.8 °F 30.03 in Calm     89% 0 in meteobridge W/m2
20:29 71.1 °F 67.6 °F 30.03 in Calm     89% 0 in meteobridge W/m2
20:34 70.7 °F 67.6 °F 30.03 in Calm     90% 0 in meteobridge W/m2
20:39 70.5 °F 67.5 °F 30.03 in Calm     90% 0 in meteobridge W/m2
20:44 70.3 °F 67.3 °F 30.03 in Calm     90% 0 in meteobridge W/m2
20:49 70.3 °F 67.3 °F 30.03 in Calm     90% 0 in meteobridge W/m2
20:54 70.2 °F 67.1 °F 30.04 in Calm     90% 0 in meteobridge W/m2
20:59 70.2 °F 67.5 °F 30.04 in Calm     91% 0 in meteobridge W/m2
21:04 70 °F 67.3 °F 30.04 in Calm     91% 0 in meteobridge W/m2
21:09 69.8 °F 67.1 °F 30.04 in Calm     91% 0 in meteobridge W/m2
21:14 69.6 °F 66.9 °F 30.05 in Calm     91% 0 in meteobridge W/m2
21:19 69.4 °F 66.7 °F 30.05 in Calm     91% 0 in meteobridge W/m2
21:24 69.4 °F 67.1 °F 30.05 in Calm     92% 0 in meteobridge W/m2
21:29 69.3 °F 66.9 °F 30.05 in Calm     92% 0 in meteobridge W/m2
21:34 69.3 °F 66.9 °F 30.06 in Calm     92% 0 in meteobridge W/m2
21:39 69.1 °F 66.7 °F 30.06 in Calm     92% 0 in meteobridge W/m2
21:44 68.9 °F 66.6 °F 30.06 in Calm     92% 0 in meteobridge W/m2
21:49 68.7 °F 66.4 °F 30.06 in Calm     92% 0 in meteobridge W/m2
21:54 68.5 °F 66.2 °F 30.07 in Calm     92% 0 in meteobridge W/m2
21:59 68.5 °F 66.2 °F 30.07 in Calm     92% 0 in meteobridge W/m2
22:04 68.4 °F 66 °F 30.07 in Calm     92% 0 in meteobridge W/m2
22:09 68.2 °F 65.8 °F 30.07 in Calm     92% 0 in meteobridge W/m2
22:14 67.8 °F 65.7 °F 30.07 in Calm     93% 0 in meteobridge W/m2
22:19 67.8 °F 65.5 °F 30.07 in Calm     92% 0 in meteobridge W/m2
22:24 67.6 °F 65.5 °F 30.08 in Calm     93% 0 in meteobridge W/m2
22:29 67.6 °F 65.5 °F 30.08 in Calm     93% 0 in meteobridge W/m2
22:34 67.5 °F 65.3 °F 30.08 in Calm     93% 0 in meteobridge W/m2
22:39 67.5 °F 65.3 °F 30.08 in Calm     93% 0 in meteobridge W/m2
22:44 67.3 °F 65.1 °F 30.08 in Calm     93% 0 in meteobridge W/m2
22:49 67.3 °F 65.1 °F 30.07 in Calm     93% 0 in meteobridge W/m2
22:54 66.9 °F 64.8 °F 30.08 in Calm     93% 0 in meteobridge W/m2
22:59 66.9 °F 64.8 °F 30.08 in Calm     93% 0 in meteobridge W/m2
23:04 66.7 °F 64.6 °F 30.08 in Calm     93% 0 in meteobridge W/m2
23:09 66.6 °F 64.4 °F 30.08 in Calm     93% 0 in meteobridge W/m2
23:14 66.6 °F 64.4 °F 30.08 in Calm     93% 0 in meteobridge W/m2
23:19 66.6 °F 64.4 °F 30.08 in Calm     93% 0 in meteobridge W/m2
23:24 66.4 °F 64.6 °F 30.07 in Calm     94% 0 in meteobridge W/m2
23:29 66.4 °F 64.6 °F 30.07 in Calm     94% 0 in meteobridge W/m2
23:34 66 °F 64.2 °F 30.07 in Calm     94% 0 in meteobridge W/m2
23:39 65.8 °F 64 °F 30.07 in Calm     94% 0 in meteobridge W/m2
23:44 65.8 °F 64 °F 30.07 in Calm     94% 0 in meteobridge W/m2
23:49 65.7 °F 63.9 °F 30.07 in Calm     94% 0 in meteobridge W/m2
23:54 65.7 °F 63.9 °F 30.07 in Calm     94% 0 in meteobridge W/m2
23:59 65.5 °F 63.7 °F 30.07 in Calm     94% 0 in meteobridge W/m2
EllijayWeather
Compliments of Weather Underground - 2.5 mb